sensor_id;sensor_type;location;lat;lon;timestamp;P1;durP1;ratioP1;P2;durP2;ratioP2
71317;SDS011;59106;44.706;18.310;2024-03-23T00:53:33;48.75;;;25.25;;
71317;SDS011;59106;44.706;18.310;2024-03-23T00:55:59;48.72;;;26.10;;
71317;SDS011;59106;44.706;18.310;2024-03-23T00:58:25;47.63;;;24.98;;
71317;SDS011;59106;44.706;18.310;2024-03-23T01:00:51;48.97;;;24.47;;
71317;SDS011;59106;44.706;18.310;2024-03-23T01:03:17;45.90;;;22.85;;
71317;SDS011;59106;44.706;18.310;2024-03-23T01:05:43;45.77;;;23.63;;
71317;SDS011;59106;44.706;18.310;2024-03-23T01:08:09;46.28;;;23.02;;
71317;SDS011;59106;44.706;18.310;2024-03-23T01:10:34;44.35;;;22.77;;
71317;SDS011;59106;44.706;18.310;2024-03-23T01:13:01;46.57;;;22.57;;
71317;SDS011;59106;44.706;18.310;2024-03-23T01:15:26;45.05;;;22.50;;
71317;SDS011;59106;44.706;18.310;2024-03-23T01:17:53;43.40;;;21.40;;
71317;SDS011;59106;44.706;18.310;2024-03-23T01:20:19;50.08;;;22.58;;
71317;SDS011;59106;44.706;18.310;2024-03-23T01:22:45;46.67;;;22.65;;
71317;SDS011;59106;44.706;18.310;2024-03-23T01:25:11;49.50;;;23.50;;
71317;SDS011;59106;44.706;18.310;2024-03-23T01:27:37;58.47;;;25.25;;
71317;SDS011;59106;44.706;18.310;2024-03-23T01:30:02;63.20;;;28.02;;
71317;SDS011;59106;44.706;18.310;2024-03-23T01:32:29;58.77;;;28.03;;
71317;SDS011;59106;44.706;18.310;2024-03-23T01:34:54;56.97;;;27.20;;
71317;SDS011;59106;44.706;18.310;2024-03-23T01:37:20;55.75;;;28.33;;
71317;SDS011;59106;44.706;18.310;2024-03-23T01:39:46;51.47;;;26.37;;
71317;SDS011;59106;44.706;18.310;2024-03-23T01:42:12;54.63;;;26.02;;
71317;SDS011;59106;44.706;18.310;2024-03-23T01:44:38;53.03;;;25.40;;
71317;SDS011;59106;44.706;18.310;2024-03-23T01:47:06;49.20;;;25.45;;
71317;SDS011;59106;44.706;18.310;2024-03-23T01:49:32;46.72;;;22.90;;
71317;SDS011;59106;44.706;18.310;2024-03-23T01:51:59;44.47;;;23.45;;
71317;SDS011;59106;44.706;18.310;2024-03-23T01:54:25;45.40;;;22.83;;
71317;SDS011;59106;44.706;18.310;2024-03-23T01:56:51;50.00;;;25.05;;
71317;SDS011;59106;44.706;18.310;2024-03-23T01:59:16;53.10;;;26.50;;
71317;SDS011;59106;44.706;18.310;2024-03-23T02:01:43;53.40;;;26.85;;
71317;SDS011;59106;44.706;18.310;2024-03-23T02:04:08;45.35;;;24.20;;
71317;SDS011;59106;44.706;18.310;2024-03-23T02:06:35;38.13;;;20.45;;
71317;SDS011;59106;44.706;18.310;2024-03-23T02:12:23;38.60;;;20.25;;
71317;SDS011;59106;44.706;18.310;2024-03-23T02:14:49;45.03;;;22.00;;
71317;SDS011;59106;44.706;18.310;2024-03-23T02:17:14;46.40;;;23.93;;
71317;SDS011;59106;44.706;18.310;2024-03-23T02:19:41;39.70;;;21.45;;
71317;SDS011;59106;44.706;18.310;2024-03-23T02:22:06;41.20;;;19.70;;
71317;SDS011;59106;44.706;18.310;2024-03-23T02:24:32;35.00;;;18.52;;
71317;SDS011;59106;44.706;18.310;2024-03-23T02:26:59;39.63;;;20.92;;
71317;SDS011;59106;44.706;18.310;2024-03-23T02:29:25;41.73;;;22.23;;
71317;SDS011;59106;44.706;18.310;2024-03-23T02:31:51;46.17;;;24.33;;
71317;SDS011;59106;44.706;18.310;2024-03-23T02:34:17;41.10;;;21.87;;
71317;SDS011;59106;44.706;18.310;2024-03-23T02:36:42;42.63;;;22.30;;
71317;SDS011;59106;44.706;18.310;2024-03-23T02:39:08;43.33;;;22.05;;
71317;SDS011;59106;44.706;18.310;2024-03-23T02:41:34;42.37;;;22.63;;
71317;SDS011;59106;44.706;18.310;2024-03-23T02:44:00;39.40;;;20.67;;
71317;SDS011;59106;44.706;18.310;2024-03-23T02:46:26;42.20;;;20.97;;
71317;SDS011;59106;44.706;18.310;2024-03-23T02:48:52;38.70;;;20.30;;
71317;SDS011;59106;44.706;18.310;2024-03-23T02:51:18;39.20;;;21.08;;
71317;SDS011;59106;44.706;18.310;2024-03-23T02:53:44;40.63;;;21.83;;
71317;SDS011;59106;44.706;18.310;2024-03-23T02:56:09;39.78;;;21.00;;
71317;SDS011;59106;44.706;18.310;2024-03-23T02:58:42;42.15;;;21.45;;
71317;SDS011;59106;44.706;18.310;2024-03-23T03:01:07;40.57;;;21.60;;
71317;SDS011;59106;44.706;18.310;2024-03-23T03:03:34;40.38;;;21.67;;
71317;SDS011;59106;44.706;18.310;2024-03-23T03:05:59;39.35;;;20.20;;
71317;SDS011;59106;44.706;18.310;2024-03-23T03:08:25;37.60;;;19.37;;
71317;SDS011;59106;44.706;18.310;2024-03-23T03:10:51;38.28;;;20.02;;
71317;SDS011;59106;44.706;18.310;2024-03-23T03:13:17;39.72;;;20.58;;
71317;SDS011;59106;44.706;18.310;2024-03-23T03:15:43;37.83;;;20.20;;
71317;SDS011;59106;44.706;18.310;2024-03-23T03:18:09;38.20;;;20.37;;
71317;SDS011;59106;44.706;18.310;2024-03-23T03:20:38;40.50;;;20.73;;
71317;SDS011;59106;44.706;18.310;2024-03-23T03:23:05;36.87;;;19.87;;
71317;SDS011;59106;44.706;18.310;2024-03-23T03:25:31;38.83;;;20.60;;
71317;SDS011;59106;44.706;18.310;2024-03-23T03:27:57;39.30;;;21.13;;
71317;SDS011;59106;44.706;18.310;2024-03-23T03:30:23;38.25;;;20.60;;
71317;SDS011;59106;44.706;18.310;2024-03-23T03:32:51;40.60;;;20.90;;
71317;SDS011;59106;44.706;18.310;2024-03-23T03:35:17;41.15;;;21.40;;
71317;SDS011;59106;44.706;18.310;2024-03-23T03:37:43;41.45;;;21.55;;
71317;SDS011;59106;44.706;18.310;2024-03-23T03:40:08;38.90;;;20.73;;
71317;SDS011;59106;44.706;18.310;2024-03-23T03:42:35;40.88;;;21.40;;
71317;SDS011;59106;44.706;18.310;2024-03-23T03:45:00;41.27;;;21.00;;
71317;SDS011;59106;44.706;18.310;2024-03-23T03:47:27;38.75;;;20.50;;
71317;SDS011;59106;44.706;18.310;2024-03-23T03:49:52;37.58;;;19.83;;
71317;SDS011;59106;44.706;18.310;2024-03-23T03:52:18;38.33;;;20.90;;
71317;SDS011;59106;44.706;18.310;2024-03-23T03:54:44;40.60;;;21.10;;
71317;SDS011;59106;44.706;18.310;2024-03-23T03:57:10;40.20;;;20.38;;
71317;SDS011;59106;44.706;18.310;2024-03-23T03:59:36;38.03;;;20.23;;
71317;SDS011;59106;44.706;18.310;2024-03-23T04:02:02;39.35;;;20.23;;
71317;SDS011;59106;44.706;18.310;2024-03-23T04:04:28;38.10;;;19.80;;
71317;SDS011;59106;44.706;18.310;2024-03-23T04:07:00;38.30;;;20.93;;
71317;SDS011;59106;44.706;18.310;2024-03-23T04:09:26;37.20;;;20.20;;
71317;SDS011;59106;44.706;18.310;2024-03-23T04:11:52;39.20;;;20.37;;
71317;SDS011;59106;44.706;18.310;2024-03-23T04:14:18;38.00;;;20.05;;
71317;SDS011;59106;44.706;18.310;2024-03-23T04:16:44;46.60;;;21.87;;
71317;SDS011;59106;44.706;18.310;2024-03-23T04:19:09;38.97;;;20.65;;
71317;SDS011;59106;44.706;18.310;2024-03-23T04:21:36;38.65;;;21.13;;
71317;SDS011;59106;44.706;18.310;2024-03-23T04:24:02;41.53;;;21.27;;
71317;SDS011;59106;44.706;18.310;2024-03-23T04:26:28;39.58;;;21.75;;
71317;SDS011;59106;44.706;18.310;2024-03-23T04:28:54;44.67;;;23.80;;
71317;SDS011;59106;44.706;18.310;2024-03-23T04:31:20;45.03;;;23.97;;
71317;SDS011;59106;44.706;18.310;2024-03-23T04:33:47;45.78;;;24.45;;
71317;SDS011;59106;44.706;18.310;2024-03-23T04:36:13;46.43;;;23.97;;
71317;SDS011;59106;44.706;18.310;2024-03-23T04:38:38;44.28;;;24.00;;
71317;SDS011;59106;44.706;18.310;2024-03-23T04:41:04;43.40;;;23.73;;
71317;SDS011;59106;44.706;18.310;2024-03-23T04:43:30;49.13;;;25.05;;
71317;SDS011;59106;44.706;18.310;2024-03-23T04:45:56;50.42;;;25.05;;
71317;SDS011;59106;44.706;18.310;2024-03-23T04:48:22;49.33;;;24.90;;
71317;SDS011;59106;44.706;18.310;2024-03-23T04:50:48;48.65;;;25.27;;
71317;SDS011;59106;44.706;18.310;2024-03-23T04:53:15;55.20;;;27.33;;
71317;SDS011;59106;44.706;18.310;2024-03-23T04:55:42;51.17;;;26.90;;
71317;SDS011;59106;44.706;18.310;2024-03-23T04:58:08;52.65;;;27.30;;
71317;SDS011;59106;44.706;18.310;2024-03-23T05:00:34;53.28;;;27.08;;
71317;SDS011;59106;44.706;18.310;2024-03-23T05:03:00;54.77;;;26.57;;
71317;SDS011;59106;44.706;18.310;2024-03-23T05:05:26;50.85;;;25.55;;
71317;SDS011;59106;44.706;18.310;2024-03-23T05:07:51;52.40;;;26.20;;
71317;SDS011;59106;44.706;18.310;2024-03-23T05:10:17;49.53;;;26.33;;
71317;SDS011;59106;44.706;18.310;2024-03-23T05:12:43;55.45;;;27.23;;
71317;SDS011;59106;44.706;18.310;2024-03-23T05:15:11;53.85;;;27.90;;
71317;SDS011;59106;44.706;18.310;2024-03-23T05:17:38;54.60;;;28.87;;
71317;SDS011;59106;44.706;18.310;2024-03-23T05:20:04;55.10;;;29.15;;
71317;SDS011;59106;44.706;18.310;2024-03-23T05:22:30;54.27;;;28.33;;
71317;SDS011;59106;44.706;18.310;2024-03-23T05:24:56;54.77;;;27.83;;
71317;SDS011;59106;44.706;18.310;2024-03-23T05:27:22;52.15;;;26.13;;
71317;SDS011;59106;44.706;18.310;2024-03-23T05:29:48;46.92;;;24.35;;
71317;SDS011;59106;44.706;18.310;2024-03-23T05:32:14;44.73;;;24.27;;
71317;SDS011;59106;44.706;18.310;2024-03-23T05:34:40;47.38;;;25.00;;
71317;SDS011;59106;44.706;18.310;2024-03-23T05:37:06;52.63;;;28.17;;
71317;SDS011;59106;44.706;18.310;2024-03-23T05:39:32;53.10;;;27.67;;
71317;SDS011;59106;44.706;18.310;2024-03-23T05:41:58;53.67;;;29.85;;
71317;SDS011;59106;44.706;18.310;2024-03-23T05:44:23;60.70;;;32.90;;
71317;SDS011;59106;44.706;18.310;2024-03-23T05:46:49;77.95;;;41.50;;
71317;SDS011;59106;44.706;18.310;2024-03-23T05:49:15;74.68;;;37.78;;
71317;SDS011;59106;44.706;18.310;2024-03-23T05:51:42;68.68;;;35.17;;
71317;SDS011;59106;44.706;18.310;2024-03-23T05:54:08;74.32;;;37.92;;
71317;SDS011;59106;44.706;18.310;2024-03-23T05:56:34;77.10;;;40.03;;
71317;SDS011;59106;44.706;18.310;2024-03-23T05:59:00;78.35;;;40.17;;
71317;SDS011;59106;44.706;18.310;2024-03-23T06:01:26;75.57;;;38.47;;
71317;SDS011;59106;44.706;18.310;2024-03-23T06:03:54;63.58;;;31.92;;
71317;SDS011;59106;44.706;18.310;2024-03-23T06:06:20;66.32;;;36.30;;
71317;SDS011;59106;44.706;18.310;2024-03-23T06:08:46;70.47;;;37.03;;
71317;SDS011;59106;44.706;18.310;2024-03-23T06:11:11;53.70;;;28.42;;
71317;SDS011;59106;44.706;18.310;2024-03-23T06:13:37;52.38;;;29.05;;
71317;SDS011;59106;44.706;18.310;2024-03-23T06:16:03;57.95;;;30.67;;
71317;SDS011;59106;44.706;18.310;2024-03-23T06:18:29;63.13;;;32.88;;
71317;SDS011;59106;44.706;18.310;2024-03-23T06:20:55;53.77;;;30.37;;
71317;SDS011;59106;44.706;18.310;2024-03-23T06:23:21;56.13;;;30.98;;
71317;SDS011;59106;44.706;18.310;2024-03-23T06:25:47;56.60;;;30.83;;
71317;SDS011;59106;44.706;18.310;2024-03-23T06:28:13;55.33;;;30.95;;
71317;SDS011;59106;44.706;18.310;2024-03-23T06:30:39;52.20;;;28.98;;
71317;SDS011;59106;44.706;18.310;2024-03-23T06:33:05;49.65;;;28.10;;
71317;SDS011;59106;44.706;18.310;2024-03-23T06:35:34;81.05;;;38.97;;
71317;SDS011;59106;44.706;18.310;2024-03-23T06:38:00;82.20;;;39.72;;
71317;SDS011;59106;44.706;18.310;2024-03-23T06:40:25;69.85;;;35.65;;
71317;SDS011;59106;44.706;18.310;2024-03-23T06:42:51;87.77;;;42.87;;
71317;SDS011;59106;44.706;18.310;2024-03-23T06:45:17;149.65;;;64.50;;
71317;SDS011;59106;44.706;18.310;2024-03-23T06:47:49;90.85;;;44.55;;
71317;SDS011;59106;44.706;18.310;2024-03-23T06:50:15;104.07;;;49.53;;
71317;SDS011;59106;44.706;18.310;2024-03-23T06:52:42;95.35;;;46.67;;
71317;SDS011;59106;44.706;18.310;2024-03-23T06:55:08;88.00;;;43.43;;
71317;SDS011;59106;44.706;18.310;2024-03-23T06:57:34;90.05;;;45.33;;
71317;SDS011;59106;44.706;18.310;2024-03-23T07:00:00;117.87;;;52.90;;
71317;SDS011;59106;44.706;18.310;2024-03-23T07:02:26;144.10;;;59.83;;
71317;SDS011;59106;44.706;18.310;2024-03-23T07:04:52;130.88;;;57.13;;
71317;SDS011;59106;44.706;18.310;2024-03-23T07:07:18;133.18;;;60.00;;
71317;SDS011;59106;44.706;18.310;2024-03-23T07:09:43;124.07;;;59.13;;
71317;SDS011;59106;44.706;18.310;2024-03-23T07:12:09;102.20;;;51.58;;
71317;SDS011;59106;44.706;18.310;2024-03-23T07:14:35;110.83;;;57.13;;
71317;SDS011;59106;44.706;18.310;2024-03-23T07:17:01;120.65;;;67.55;;
71317;SDS011;59106;44.706;18.310;2024-03-23T07:19:27;84.95;;;49.60;;
71317;SDS011;59106;44.706;18.310;2024-03-23T07:21:54;82.10;;;45.93;;
71317;SDS011;59106;44.706;18.310;2024-03-23T07:24:19;91.13;;;50.03;;
71317;SDS011;59106;44.706;18.310;2024-03-23T07:26:45;96.72;;;51.08;;
71317;SDS011;59106;44.706;18.310;2024-03-23T07:29:12;89.20;;;50.03;;
71317;SDS011;59106;44.706;18.310;2024-03-23T07:31:38;93.85;;;49.90;;
71317;SDS011;59106;44.706;18.310;2024-03-23T07:34:04;90.43;;;49.88;;
71317;SDS011;59106;44.706;18.310;2024-03-23T07:36:31;74.65;;;43.03;;
71317;SDS011;59106;44.706;18.310;2024-03-23T07:38:57;84.30;;;44.37;;
71317;SDS011;59106;44.706;18.310;2024-03-23T07:41:23;83.53;;;45.25;;
71317;SDS011;59106;44.706;18.310;2024-03-23T07:43:49;80.82;;;44.30;;
71317;SDS011;59106;44.706;18.310;2024-03-23T07:46:16;87.63;;;51.53;;
71317;SDS011;59106;44.706;18.310;2024-03-23T07:48:42;79.07;;;45.35;;
71317;SDS011;59106;44.706;18.310;2024-03-23T07:51:09;76.93;;;44.07;;
71317;SDS011;59106;44.706;18.310;2024-03-23T07:53:36;66.80;;;37.78;;
71317;SDS011;59106;44.706;18.310;2024-03-23T07:56:05;65.55;;;39.08;;
71317;SDS011;59106;44.706;18.310;2024-03-23T07:58:31;72.80;;;42.30;;
71317;SDS011;59106;44.706;18.310;2024-03-23T08:01:03;72.28;;;41.83;;
71317;SDS011;59106;44.706;18.310;2024-03-23T08:03:29;83.53;;;44.38;;
71317;SDS011;59106;44.706;18.310;2024-03-23T08:05:55;77.47;;;43.80;;
71317;SDS011;59106;44.706;18.310;2024-03-23T08:08:21;62.05;;;36.97;;
71317;SDS011;59106;44.706;18.310;2024-03-23T08:10:51;59.05;;;35.38;;
71317;SDS011;59106;44.706;18.310;2024-03-23T08:13:17;52.80;;;32.38;;
71317;SDS011;59106;44.706;18.310;2024-03-23T08:15:43;58.42;;;31.90;;
71317;SDS011;59106;44.706;18.310;2024-03-23T08:18:12;74.70;;;37.30;;
71317;SDS011;59106;44.706;18.310;2024-03-23T08:20:38;56.92;;;35.40;;
71317;SDS011;59106;44.706;18.310;2024-03-23T08:23:06;58.30;;;35.50;;
71317;SDS011;59106;44.706;18.310;2024-03-23T08:25:32;57.30;;;33.42;;
71317;SDS011;59106;44.706;18.310;2024-03-23T08:27:58;43.70;;;27.30;;
71317;SDS011;59106;44.706;18.310;2024-03-23T08:30:24;42.67;;;26.77;;
71317;SDS011;59106;44.706;18.310;2024-03-23T08:32:50;38.77;;;24.50;;
71317;SDS011;59106;44.706;18.310;2024-03-23T08:35:16;45.92;;;25.92;;
71317;SDS011;59106;44.706;18.310;2024-03-23T08:37:42;43.30;;;24.65;;
71317;SDS011;59106;44.706;18.310;2024-03-23T08:40:08;40.10;;;24.75;;
71317;SDS011;59106;44.706;18.310;2024-03-23T08:42:34;37.83;;;21.58;;
71317;SDS011;59106;44.706;18.310;2024-03-23T08:45:00;35.83;;;22.33;;
71317;SDS011;59106;44.706;18.310;2024-03-23T08:47:26;36.10;;;22.42;;
71317;SDS011;59106;44.706;18.310;2024-03-23T08:49:52;41.63;;;24.20;;
71317;SDS011;59106;44.706;18.310;2024-03-23T08:52:18;38.13;;;23.47;;
71317;SDS011;59106;44.706;18.310;2024-03-23T08:54:44;38.78;;;24.25;;
71317;SDS011;59106;44.706;18.310;2024-03-23T08:57:10;35.58;;;21.63;;
71317;SDS011;59106;44.706;18.310;2024-03-23T08:59:37;38.60;;;22.15;;
71317;SDS011;59106;44.706;18.310;2024-03-23T09:02:03;33.30;;;22.00;;
71317;SDS011;59106;44.706;18.310;2024-03-23T09:04:30;32.85;;;20.90;;
71317;SDS011;59106;44.706;18.310;2024-03-23T09:06:56;32.22;;;20.48;;
71317;SDS011;59106;44.706;18.310;2024-03-23T09:09:24;29.00;;;18.25;;
71317;SDS011;59106;44.706;18.310;2024-03-23T09:11:50;30.45;;;17.88;;
71317;SDS011;59106;44.706;18.310;2024-03-23T09:14:16;29.43;;;16.53;;
71317;SDS011;59106;44.706;18.310;2024-03-23T09:16:42;23.70;;;15.40;;
71317;SDS011;59106;44.706;18.310;2024-03-23T09:19:08;24.92;;;15.25;;
71317;SDS011;59106;44.706;18.310;2024-03-23T09:21:34;26.58;;;16.10;;
71317;SDS011;59106;44.706;18.310;2024-03-23T09:24:00;23.98;;;14.48;;
71317;SDS011;59106;44.706;18.310;2024-03-23T09:26:25;21.67;;;12.93;;
71317;SDS011;59106;44.706;18.310;2024-03-23T09:28:52;20.25;;;12.82;;
71317;SDS011;59106;44.706;18.310;2024-03-23T09:31:18;24.15;;;13.90;;
71317;SDS011;59106;44.706;18.310;2024-03-23T09:33:44;20.42;;;12.90;;
71317;SDS011;59106;44.706;18.310;2024-03-23T09:36:10;22.05;;;13.40;;
71317;SDS011;59106;44.706;18.310;2024-03-23T09:38:36;23.48;;;13.88;;
71317;SDS011;59106;44.706;18.310;2024-03-23T09:41:06;23.67;;;13.82;;
71317;SDS011;59106;44.706;18.310;2024-03-23T09:43:32;19.73;;;12.27;;
71317;SDS011;59106;44.706;18.310;2024-03-23T09:45:58;23.73;;;14.30;;
71317;SDS011;59106;44.706;18.310;2024-03-23T09:48:24;14.43;;;8.10;;
71317;SDS011;59106;44.706;18.310;2024-03-23T09:50:50;13.10;;;8.40;;
71317;SDS011;59106;44.706;18.310;2024-03-23T09:53:16;14.07;;;7.82;;
71317;SDS011;59106;44.706;18.310;2024-03-23T09:55:42;16.30;;;9.30;;
71317;SDS011;59106;44.706;18.310;2024-03-23T09:58:09;13.75;;;7.97;;
71317;SDS011;59106;44.706;18.310;2024-03-23T10:00:37;14.23;;;8.55;;
71317;SDS011;59106;44.706;18.310;2024-03-23T10:03:04;15.83;;;9.23;;
71317;SDS011;59106;44.706;18.310;2024-03-23T10:05:30;17.77;;;9.75;;
71317;SDS011;59106;44.706;18.310;2024-03-23T10:10:43;18.63;;;11.10;;
71317;SDS011;59106;44.706;18.310;2024-03-23T10:13:09;19.60;;;10.95;;
71317;SDS011;59106;44.706;18.310;2024-03-23T10:15:35;15.25;;;8.13;;
71317;SDS011;59106;44.706;18.310;2024-03-23T10:18:17;10.75;;;6.50;;
71317;SDS011;59106;44.706;18.310;2024-03-23T10:20:43;12.80;;;7.00;;
71317;SDS011;59106;44.706;18.310;2024-03-23T10:23:16;13.75;;;7.72;;
71317;SDS011;59106;44.706;18.310;2024-03-23T10:25:42;12.40;;;6.03;;
71317;SDS011;59106;44.706;18.310;2024-03-23T10:28:08;11.88;;;6.90;;
71317;SDS011;59106;44.706;18.310;2024-03-23T10:30:35;11.60;;;6.87;;
71317;SDS011;59106;44.706;18.310;2024-03-23T10:33:10;16.50;;;8.00;;
71317;SDS011;59106;44.706;18.310;2024-03-23T10:35:36;13.45;;;7.22;;
71317;SDS011;59106;44.706;18.310;2024-03-23T10:38:04;10.48;;;5.65;;
71317;SDS011;59106;44.706;18.310;2024-03-23T10:40:30;9.70;;;5.67;;
71317;SDS011;59106;44.706;18.310;2024-03-23T10:42:57;10.75;;;5.70;;
71317;SDS011;59106;44.706;18.310;2024-03-23T10:45:23;10.88;;;5.75;;
71317;SDS011;59106;44.706;18.310;2024-03-23T10:47:49;10.57;;;5.88;;
71317;SDS011;59106;44.706;18.310;2024-03-23T10:50:15;13.02;;;7.05;;
71317;SDS011;59106;44.706;18.310;2024-03-23T10:52:42;10.55;;;5.40;;
71317;SDS011;59106;44.706;18.310;2024-03-23T10:55:11;10.98;;;5.90;;
71317;SDS011;59106;44.706;18.310;2024-03-23T10:57:41;13.23;;;6.22;;
71317;SDS011;59106;44.706;18.310;2024-03-23T11:00:08;11.18;;;5.90;;
71317;SDS011;59106;44.706;18.310;2024-03-23T11:02:34;10.02;;;5.60;;
71317;SDS011;59106;44.706;18.310;2024-03-23T11:05:00;10.98;;;7.32;;
71317;SDS011;59106;44.706;18.310;2024-03-23T11:09:52;11.70;;;6.10;;
71317;SDS011;59106;44.706;18.310;2024-03-23T11:19:52;10.55;;;5.68;;
71317;SDS011;59106;44.706;18.310;2024-03-23T11:25:17;10.35;;;5.78;;
71317;SDS011;59106;44.706;18.310;2024-03-23T11:27:43;10.50;;;5.88;;
71317;SDS011;59106;44.706;18.310;2024-03-23T11:30:11;11.73;;;5.30;;
71317;SDS011;59106;44.706;18.310;2024-03-23T11:32:37;10.60;;;5.50;;
71317;SDS011;59106;44.706;18.310;2024-03-23T11:35:03;10.85;;;5.45;;
71317;SDS011;59106;44.706;18.310;2024-03-23T11:37:29;10.05;;;5.75;;
71317;SDS011;59106;44.706;18.310;2024-03-23T11:39:55;10.60;;;5.20;;
71317;SDS011;59106;44.706;18.310;2024-03-23T11:42:21;9.80;;;5.50;;
71317;SDS011;59106;44.706;18.310;2024-03-23T11:44:47;11.77;;;5.57;;
71317;SDS011;59106;44.706;18.310;2024-03-23T11:47:13;9.40;;;5.30;;
71317;SDS011;59106;44.706;18.310;2024-03-23T11:49:39;10.15;;;5.10;;
71317;SDS011;59106;44.706;18.310;2024-03-23T11:52:06;9.32;;;5.45;;
71317;SDS011;59106;44.706;18.310;2024-03-23T11:54:33;9.93;;;5.10;;
71317;SDS011;59106;44.706;18.310;2024-03-23T11:57:03;9.50;;;5.05;;
71317;SDS011;59106;44.706;18.310;2024-03-23T11:59:39;10.33;;;5.57;;
71317;SDS011;59106;44.706;18.310;2024-03-23T12:02:12;10.43;;;5.63;;
71317;SDS011;59106;44.706;18.310;2024-03-23T12:04:40;12.77;;;5.88;;
71317;SDS011;59106;44.706;18.310;2024-03-23T12:07:19;10.32;;;5.30;;
71317;SDS011;59106;44.706;18.310;2024-03-23T12:09:46;10.43;;;5.40;;
71317;SDS011;59106;44.706;18.310;2024-03-23T12:12:16;12.32;;;5.95;;
71317;SDS011;59106;44.706;18.310;2024-03-23T12:14:42;13.05;;;7.57;;
71317;SDS011;59106;44.706;18.310;2024-03-23T12:19:37;11.20;;;6.40;;
71317;SDS011;59106;44.706;18.310;2024-03-23T12:22:04;9.68;;;5.50;;
71317;SDS011;59106;44.706;18.310;2024-03-23T12:24:31;9.87;;;5.70;;
71317;SDS011;59106;44.706;18.310;2024-03-23T12:27:03;12.23;;;5.57;;
71317;SDS011;59106;44.706;18.310;2024-03-23T12:29:30;9.63;;;5.38;;
71317;SDS011;59106;44.706;18.310;2024-03-23T12:32:00;10.02;;;5.00;;
71317;SDS011;59106;44.706;18.310;2024-03-23T12:34:26;11.70;;;5.00;;
71317;SDS011;59106;44.706;18.310;2024-03-23T12:36:52;10.35;;;5.00;;
71317;SDS011;59106;44.706;18.310;2024-03-23T12:39:18;10.55;;;5.85;;
71317;SDS011;59106;44.706;18.310;2024-03-23T12:41:46;10.95;;;5.57;;
71317;SDS011;59106;44.706;18.310;2024-03-23T12:44:12;12.20;;;6.10;;
71317;SDS011;59106;44.706;18.310;2024-03-23T12:46:39;12.57;;;6.55;;
71317;SDS011;59106;44.706;18.310;2024-03-23T12:49:05;11.85;;;7.18;;
71317;SDS011;59106;44.706;18.310;2024-03-23T12:51:31;10.63;;;5.40;;
71317;SDS011;59106;44.706;18.310;2024-03-23T12:53:57;10.05;;;5.57;;
71317;SDS011;59106;44.706;18.310;2024-03-23T12:56:23;10.68;;;5.15;;
71317;SDS011;59106;44.706;18.310;2024-03-23T12:58:49;9.27;;;5.15;;
71317;SDS011;59106;44.706;18.310;2024-03-23T13:01:17;12.50;;;5.63;;
71317;SDS011;59106;44.706;18.310;2024-03-23T13:03:43;8.57;;;4.90;;
71317;SDS011;59106;44.706;18.310;2024-03-23T13:06:11;9.27;;;4.93;;
71317;SDS011;59106;44.706;18.310;2024-03-23T13:08:37;11.55;;;5.10;;
71317;SDS011;59106;44.706;18.310;2024-03-23T13:11:03;10.75;;;5.20;;
71317;SDS011;59106;44.706;18.310;2024-03-23T13:13:29;12.00;;;5.95;;
71317;SDS011;59106;44.706;18.310;2024-03-23T13:15:57;11.45;;;6.05;;
71317;SDS011;59106;44.706;18.310;2024-03-23T13:18:23;11.88;;;5.72;;
71317;SDS011;59106;44.706;18.310;2024-03-23T13:20:48;11.38;;;6.40;;
71317;SDS011;59106;44.706;18.310;2024-03-23T13:23:14;11.60;;;6.00;;
71317;SDS011;59106;44.706;18.310;2024-03-23T13:25:40;11.30;;;6.00;;
71317;SDS011;59106;44.706;18.310;2024-03-23T13:28:06;12.03;;;7.17;;
71317;SDS011;59106;44.706;18.310;2024-03-23T13:30:33;11.77;;;6.50;;
71317;SDS011;59106;44.706;18.310;2024-03-23T13:32:59;13.93;;;9.25;;
71317;SDS011;59106;44.706;18.310;2024-03-23T13:35:24;10.23;;;6.50;;
71317;SDS011;59106;44.706;18.310;2024-03-23T13:37:50;11.75;;;6.32;;
71317;SDS011;59106;44.706;18.310;2024-03-23T13:40:16;13.10;;;7.10;;
71317;SDS011;59106;44.706;18.310;2024-03-23T13:42:42;11.50;;;6.32;;
71317;SDS011;59106;44.706;18.310;2024-03-23T13:45:08;10.45;;;6.13;;
71317;SDS011;59106;44.706;18.310;2024-03-23T13:47:37;9.60;;;5.97;;
71317;SDS011;59106;44.706;18.310;2024-03-23T13:50:03;12.35;;;8.20;;
71317;SDS011;59106;44.706;18.310;2024-03-23T13:52:31;10.83;;;6.87;;
71317;SDS011;59106;44.706;18.310;2024-03-23T13:54:57;10.40;;;6.63;;
71317;SDS011;59106;44.706;18.310;2024-03-23T13:57:24;10.55;;;6.80;;
71317;SDS011;59106;44.706;18.310;2024-03-23T13:59:51;9.82;;;7.00;;
71317;SDS011;59106;44.706;18.310;2024-03-23T14:02:17;9.90;;;6.57;;
71317;SDS011;59106;44.706;18.310;2024-03-23T14:04:43;12.97;;;7.87;;
71317;SDS011;59106;44.706;18.310;2024-03-23T14:07:09;15.60;;;9.57;;
71317;SDS011;59106;44.706;18.310;2024-03-23T14:09:35;11.98;;;6.72;;
71317;SDS011;59106;44.706;18.310;2024-03-23T14:12:01;12.43;;;6.80;;
71317;SDS011;59106;44.706;18.310;2024-03-23T14:14:27;10.05;;;6.18;;
71317;SDS011;59106;44.706;18.310;2024-03-23T14:16:53;11.27;;;6.68;;
71317;SDS011;59106;44.706;18.310;2024-03-23T14:19:19;10.48;;;7.00;;
71317;SDS011;59106;44.706;18.310;2024-03-23T14:21:45;19.17;;;8.80;;
71317;SDS011;59106;44.706;18.310;2024-03-23T14:24:11;11.88;;;7.47;;
71317;SDS011;59106;44.706;18.310;2024-03-23T14:26:37;13.05;;;7.18;;
71317;SDS011;59106;44.706;18.310;2024-03-23T14:29:04;13.55;;;6.10;;
71317;SDS011;59106;44.706;18.310;2024-03-23T14:31:30;10.88;;;5.25;;
71317;SDS011;59106;44.706;18.310;2024-03-23T14:33:56;14.15;;;6.03;;
71317;SDS011;59106;44.706;18.310;2024-03-23T14:36:22;10.98;;;6.30;;
71317;SDS011;59106;44.706;18.310;2024-03-23T14:38:48;10.57;;;5.30;;
71317;SDS011;59106;44.706;18.310;2024-03-23T14:41:14;10.05;;;5.70;;
71317;SDS011;59106;44.706;18.310;2024-03-23T14:43:40;15.40;;;6.20;;
71317;SDS011;59106;44.706;18.310;2024-03-23T14:46:09;12.30;;;5.28;;
71317;SDS011;59106;44.706;18.310;2024-03-23T14:48:35;11.73;;;5.18;;
71317;SDS011;59106;44.706;18.310;2024-03-23T14:51:03;10.82;;;5.05;;
71317;SDS011;59106;44.706;18.310;2024-03-23T14:53:33;9.38;;;5.00;;
71317;SDS011;59106;44.706;18.310;2024-03-23T14:56:00;11.00;;;5.30;;
71317;SDS011;59106;44.706;18.310;2024-03-23T14:58:26;10.10;;;5.25;;
71317;SDS011;59106;44.706;18.310;2024-03-23T15:00:53;9.38;;;4.82;;
71317;SDS011;59106;44.706;18.310;2024-03-23T15:03:18;12.90;;;5.20;;
71317;SDS011;59106;44.706;18.310;2024-03-23T15:05:57;10.85;;;5.20;;
71317;SDS011;59106;44.706;18.310;2024-03-23T15:08:23;11.85;;;5.50;;
71317;SDS011;59106;44.706;18.310;2024-03-23T15:10:49;10.67;;;5.20;;
71317;SDS011;59106;44.706;18.310;2024-03-23T15:13:16;9.73;;;4.80;;
71317;SDS011;59106;44.706;18.310;2024-03-23T15:15:42;12.35;;;6.20;;
71317;SDS011;59106;44.706;18.310;2024-03-23T15:18:11;11.85;;;6.13;;
71317;SDS011;59106;44.706;18.310;2024-03-23T15:20:38;11.38;;;6.18;;
71317;SDS011;59106;44.706;18.310;2024-03-23T15:23:04;12.82;;;6.50;;